sensor_id;sensor_type;location;lat;lon;timestamp;temperature;humidity
53310;DHT22;39197;53.200;5.792;2023-06-22T00:00:53;18.20;99.90
53310;DHT22;39197;53.200;5.792;2023-06-22T00:03:20;18.20;99.90
53310;DHT22;39197;53.200;5.792;2023-06-22T00:05:46;18.20;99.90
53310;DHT22;39197;53.200;5.792;2023-06-22T00:08:12;18.20;99.90
53310;DHT22;39197;53.200;5.792;2023-06-22T00:10:38;18.10;99.90
53310;DHT22;39197;53.200;5.792;2023-06-22T00:13:04;18.10;99.90
53310;DHT22;39197;53.200;5.792;2023-06-22T00:15:30;18.00;99.90
53310;DHT22;39197;53.200;5.792;2023-06-22T00:17:55;18.00;99.90
53310;DHT22;39197;53.200;5.792;2023-06-22T00:20:22;18.00;99.90
53310;DHT22;39197;53.200;5.792;2023-06-22T00:22:48;18.00;99.90
53310;DHT22;39197;53.200;5.792;2023-06-22T00:25:14;17.90;99.90
53310;DHT22;39197;53.200;5.792;2023-06-22T00:27:39;17.80;99.90
53310;DHT22;39197;53.200;5.792;2023-06-22T00:30:06;17.80;99.90
53310;DHT22;39197;53.200;5.792;2023-06-22T00:32:32;17.80;99.90
53310;DHT22;39197;53.200;5.792;2023-06-22T00:34:57;17.80;99.90
53310;DHT22;39197;53.200;5.792;2023-06-22T00:37:23;17.90;99.90
53310;DHT22;39197;53.200;5.792;2023-06-22T00:39:51;17.90;99.90
53310;DHT22;39197;53.200;5.792;2023-06-22T00:42:17;17.90;99.90
53310;DHT22;39197;53.200;5.792;2023-06-22T00:44:43;17.90;99.90
53310;DHT22;39197;53.200;5.792;2023-06-22T00:47:11;17.90;99.90
53310;DHT22;39197;53.200;5.792;2023-06-22T00:49:38;17.90;99.90
53310;DHT22;39197;53.200;5.792;2023-06-22T00:52:05;17.90;99.90
53310;DHT22;39197;53.200;5.792;2023-06-22T00:54:35;17.80;99.90
53310;DHT22;39197;53.200;5.792;2023-06-22T00:57:02;17.80;99.90
53310;DHT22;39197;53.200;5.792;2023-06-22T00:59:27;17.80;99.90
53310;DHT22;39197;53.200;5.792;2023-06-22T01:01:54;17.80;99.90
53310;DHT22;39197;53.200;5.792;2023-06-22T01:04:21;17.70;99.90
53310;DHT22;39197;53.200;5.792;2023-06-22T01:09:42;17.60;99.90
53310;DHT22;39197;53.200;5.792;2023-06-22T01:12:11;17.50;99.90
53310;DHT22;39197;53.200;5.792;2023-06-22T01:15:18;17.50;99.90
53310;DHT22;39197;53.200;5.792;2023-06-22T01:17:48;17.50;99.90
53310;DHT22;39197;53.200;5.792;2023-06-22T01:20:15;17.40;99.90
53310;DHT22;39197;53.200;5.792;2023-06-22T01:31:08;17.40;99.90
53310;DHT22;39197;53.200;5.792;2023-06-22T01:33:41;17.30;99.90
53310;DHT22;39197;53.200;5.792;2023-06-22T01:36:07;17.30;99.90
53310;DHT22;39197;53.200;5.792;2023-06-22T01:38:34;17.20;99.90
53310;DHT22;39197;53.200;5.792;2023-06-22T01:41:01;17.20;99.90
53310;DHT22;39197;53.200;5.792;2023-06-22T01:43:28;17.10;99.90
53310;DHT22;39197;53.200;5.792;2023-06-22T01:45:54;17.10;99.90
53310;DHT22;39197;53.200;5.792;2023-06-22T01:48:21;17.00;99.90
53310;DHT22;39197;53.200;5.792;2023-06-22T01:50:48;17.00;99.90
53310;DHT22;39197;53.200;5.792;2023-06-22T01:53:13;16.90;99.90
53310;DHT22;39197;53.200;5.792;2023-06-22T01:55:39;16.80;99.90
53310;DHT22;39197;53.200;5.792;2023-06-22T01:58:05;16.80;99.90
53310;DHT22;39197;53.200;5.792;2023-06-22T02:00:36;16.70;99.90
53310;DHT22;39197;53.200;5.792;2023-06-22T02:03:10;16.70;99.90
53310;DHT22;39197;53.200;5.792;2023-06-22T02:05:39;16.70;99.90
53310;DHT22;39197;53.200;5.792;2023-06-22T02:08:17;16.60;99.90
53310;DHT22;39197;53.200;5.792;2023-06-22T02:10:44;16.70;99.90
53310;DHT22;39197;53.200;5.792;2023-06-22T02:13:13;16.70;99.90
53310;DHT22;39197;53.200;5.792;2023-06-22T02:15:39;16.70;99.90
53310;DHT22;39197;53.200;5.792;2023-06-22T02:18:05;16.60;99.90
53310;DHT22;39197;53.200;5.792;2023-06-22T02:20:31;16.70;99.90
53310;DHT22;39197;53.200;5.792;2023-06-22T02:22:56;16.60;99.90
53310;DHT22;39197;53.200;5.792;2023-06-22T02:25:22;16.60;99.90
53310;DHT22;39197;53.200;5.792;2023-06-22T02:27:48;16.60;99.90
53310;DHT22;39197;53.200;5.792;2023-06-22T02:30:13;16.50;99.90
53310;DHT22;39197;53.200;5.792;2023-06-22T02:32:41;16.50;99.90
53310;DHT22;39197;53.200;5.792;2023-06-22T02:35:08;16.50;99.90
53310;DHT22;39197;53.200;5.792;2023-06-22T02:37:35;16.40;99.90
53310;DHT22;39197;53.200;5.792;2023-06-22T02:40:01;16.40;99.90
53310;DHT22;39197;53.200;5.792;2023-06-22T02:42:28;16.40;99.90
53310;DHT22;39197;53.200;5.792;2023-06-22T02:44:54;16.30;99.90
53310;DHT22;39197;53.200;5.792;2023-06-22T02:47:19;16.30;99.90
53310;DHT22;39197;53.200;5.792;2023-06-22T02:49:45;16.30;99.90
53310;DHT22;39197;53.200;5.792;2023-06-22T02:52:12;16.30;99.90
53310;DHT22;39197;53.200;5.792;2023-06-22T02:54:37;16.30;99.90
53310;DHT22;39197;53.200;5.792;2023-06-22T02:57:03;16.30;99.90
53310;DHT22;39197;53.200;5.792;2023-06-22T02:59:29;16.20;99.90
53310;DHT22;39197;53.200;5.792;2023-06-22T03:01:54;16.10;99.90
53310;DHT22;39197;53.200;5.792;2023-06-22T03:04:21;16.10;99.90
53310;DHT22;39197;53.200;5.792;2023-06-22T03:06:46;16.10;99.90
53310;DHT22;39197;53.200;5.792;2023-06-22T03:09:16;16.10;99.90
53310;DHT22;39197;53.200;5.792;2023-06-22T03:11:42;16.10;99.90
53310;DHT22;39197;53.200;5.792;2023-06-22T03:14:08;16.10;99.90
53310;DHT22;39197;53.200;5.792;2023-06-22T03:16:34;16.10;99.90
53310;DHT22;39197;53.200;5.792;2023-06-22T03:18:59;16.00;99.90
53310;DHT22;39197;53.200;5.792;2023-06-22T03:21:28;16.00;99.90
53310;DHT22;39197;53.200;5.792;2023-06-22T03:23:54;16.00;99.90
53310;DHT22;39197;53.200;5.792;2023-06-22T03:26:20;16.00;99.90
53310;DHT22;39197;53.200;5.792;2023-06-22T03:28:46;15.90;99.90
53310;DHT22;39197;53.200;5.792;2023-06-22T03:31:11;15.90;99.90
53310;DHT22;39197;53.200;5.792;2023-06-22T03:33:37;15.90;99.90
53310;DHT22;39197;53.200;5.792;2023-06-22T03:36:03;15.90;99.90
53310;DHT22;39197;53.200;5.792;2023-06-22T03:38:29;15.90;99.90
53310;DHT22;39197;53.200;5.792;2023-06-22T03:40:55;15.90;99.90
53310;DHT22;39197;53.200;5.792;2023-06-22T03:43:20;15.80;99.90
53310;DHT22;39197;53.200;5.792;2023-06-22T03:45:46;15.80;99.90
53310;DHT22;39197;53.200;5.792;2023-06-22T03:48:12;15.80;99.90
53310;DHT22;39197;53.200;5.792;2023-06-22T03:50:38;15.90;99.90
53310;DHT22;39197;53.200;5.792;2023-06-22T03:53:03;15.90;99.90
53310;DHT22;39197;53.200;5.792;2023-06-22T03:55:29;16.00;99.90
53310;DHT22;39197;53.200;5.792;2023-06-22T03:57:55;16.10;99.90
53310;DHT22;39197;53.200;5.792;2023-06-22T04:00:23;16.10;99.90
53310;DHT22;39197;53.200;5.792;2023-06-22T04:02:48;16.20;99.90
53310;DHT22;39197;53.200;5.792;2023-06-22T04:05:14;16.20;99.90
53310;DHT22;39197;53.200;5.792;2023-06-22T04:07:40;16.30;99.90
53310;DHT22;39197;53.200;5.792;2023-06-22T04:10:06;16.30;99.90
53310;DHT22;39197;53.200;5.792;2023-06-22T04:12:33;16.40;99.90
53310;DHT22;39197;53.200;5.792;2023-06-22T04:14:59;16.40;99.90
53310;DHT22;39197;53.200;5.792;2023-06-22T04:17:24;16.50;99.90
53310;DHT22;39197;53.200;5.792;2023-06-22T04:19:51;16.50;99.90
53310;DHT22;39197;53.200;5.792;2023-06-22T04:22:16;16.60;99.90
53310;DHT22;39197;53.200;5.792;2023-06-22T04:24:42;16.60;99.90
53310;DHT22;39197;53.200;5.792;2023-06-22T04:27:07;16.80;99.90
53310;DHT22;39197;53.200;5.792;2023-06-22T04:29:33;16.80;99.90
53310;DHT22;39197;53.200;5.792;2023-06-22T04:31:59;16.80;99.90
53310;DHT22;39197;53.200;5.792;2023-06-22T04:34:29;16.80;99.90
53310;DHT22;39197;53.200;5.792;2023-06-22T04:36:55;16.60;99.90
53310;DHT22;39197;53.200;5.792;2023-06-22T04:39:21;16.50;99.90
53310;DHT22;39197;53.200;5.792;2023-06-22T04:41:47;16.50;99.90
53310;DHT22;39197;53.200;5.792;2023-06-22T04:46:38;16.40;99.90
53310;DHT22;39197;53.200;5.792;2023-06-22T04:49:08;16.40;99.90
53310;DHT22;39197;53.200;5.792;2023-06-22T04:51:41;16.40;99.90
53310;DHT22;39197;53.200;5.792;2023-06-22T04:54:08;16.40;99.90
53310;DHT22;39197;53.200;5.792;2023-06-22T04:56:34;16.30;99.90
53310;DHT22;39197;53.200;5.792;2023-06-22T04:59:00;16.30;99.90
53310;DHT22;39197;53.200;5.792;2023-06-22T05:01:26;16.30;99.90
53310;DHT22;39197;53.200;5.792;2023-06-22T05:03:52;16.40;99.90
53310;DHT22;39197;53.200;5.792;2023-06-22T05:06:21;16.40;99.90
53310;DHT22;39197;53.200;5.792;2023-06-22T05:08:51;16.50;99.90
53310;DHT22;39197;53.200;5.792;2023-06-22T05:11:17;16.50;99.90
53310;DHT22;39197;53.200;5.792;2023-06-22T05:13:43;16.70;99.90
53310;DHT22;39197;53.200;5.792;2023-06-22T05:16:08;16.80;99.90
53310;DHT22;39197;53.200;5.792;2023-06-22T05:18:34;16.90;99.90
53310;DHT22;39197;53.200;5.792;2023-06-22T05:21:00;17.10;99.90
53310;DHT22;39197;53.200;5.792;2023-06-22T05:23:26;17.20;99.90
53310;DHT22;39197;53.200;5.792;2023-06-22T05:25:51;17.30;99.90
53310;DHT22;39197;53.200;5.792;2023-06-22T05:28:17;17.30;99.90
53310;DHT22;39197;53.200;5.792;2023-06-22T05:30:48;17.40;99.90
53310;DHT22;39197;53.200;5.792;2023-06-22T05:33:13;17.40;99.90
53310;DHT22;39197;53.200;5.792;2023-06-22T05:35:40;17.60;99.90
53310;DHT22;39197;53.200;5.792;2023-06-22T05:38:07;17.60;99.90
53310;DHT22;39197;53.200;5.792;2023-06-22T05:40:33;17.70;99.90
53310;DHT22;39197;53.200;5.792;2023-06-22T05:42:58;17.70;99.90
53310;DHT22;39197;53.200;5.792;2023-06-22T05:45:26;17.80;99.90
53310;DHT22;39197;53.200;5.792;2023-06-22T05:47:51;17.80;99.90
53310;DHT22;39197;53.200;5.792;2023-06-22T05:50:17;17.90;99.90
53310;DHT22;39197;53.200;5.792;2023-06-22T05:52:42;18.00;99.90
53310;DHT22;39197;53.200;5.792;2023-06-22T05:55:08;18.10;99.90
53310;DHT22;39197;53.200;5.792;2023-06-22T05:57:34;18.20;99.90
53310;DHT22;39197;53.200;5.792;2023-06-22T06:00:00;18.30;99.90
53310;DHT22;39197;53.200;5.792;2023-06-22T06:02:25;18.40;99.90
53310;DHT22;39197;53.200;5.792;2023-06-22T06:04:51;18.50;99.90
53310;DHT22;39197;53.200;5.792;2023-06-22T06:07:18;18.60;99.90
53310;DHT22;39197;53.200;5.792;2023-06-22T06:09:44;18.80;99.90
53310;DHT22;39197;53.200;5.792;2023-06-22T06:12:09;19.10;99.90
53310;DHT22;39197;53.200;5.792;2023-06-22T06:14:35;19.40;99.90
53310;DHT22;39197;53.200;5.792;2023-06-22T06:17:01;19.50;99.90
53310;DHT22;39197;53.200;5.792;2023-06-22T06:19:26;19.60;99.90
53310;DHT22;39197;53.200;5.792;2023-06-22T06:21:52;19.70;99.90
53310;DHT22;39197;53.200;5.792;2023-06-22T06:24:17;19.70;99.90
53310;DHT22;39197;53.200;5.792;2023-06-22T06:26:43;19.80;99.90
53310;DHT22;39197;53.200;5.792;2023-06-22T06:29:09;19.80;99.90
53310;DHT22;39197;53.200;5.792;2023-06-22T06:31:34;19.80;99.90
53310;DHT22;39197;53.200;5.792;2023-06-22T06:34:00;19.90;99.90
53310;DHT22;39197;53.200;5.792;2023-06-22T06:36:26;20.20;99.90
53310;DHT22;39197;53.200;5.792;2023-06-22T06:38:51;20.50;99.90
53310;DHT22;39197;53.200;5.792;2023-06-22T06:41:17;20.70;99.90
53310;DHT22;39197;53.200;5.792;2023-06-22T06:43:43;20.70;99.90
53310;DHT22;39197;53.200;5.792;2023-06-22T06:46:09;20.90;99.90
53310;DHT22;39197;53.200;5.792;2023-06-22T06:48:35;21.00;99.90
53310;DHT22;39197;53.200;5.792;2023-06-22T06:51:00;21.10;99.90
53310;DHT22;39197;53.200;5.792;2023-06-22T06:53:26;21.20;99.90
53310;DHT22;39197;53.200;5.792;2023-06-22T06:55:52;21.30;99.90
53310;DHT22;39197;53.200;5.792;2023-06-22T06:58:18;21.30;99.90
53310;DHT22;39197;53.200;5.792;2023-06-22T07:00:43;21.40;99.90
53310;DHT22;39197;53.200;5.792;2023-06-22T07:03:09;21.40;99.90
53310;DHT22;39197;53.200;5.792;2023-06-22T07:05:35;21.60;99.90
53310;DHT22;39197;53.200;5.792;2023-06-22T07:08:01;21.50;99.90
53310;DHT22;39197;53.200;5.792;2023-06-22T07:10:28;21.70;99.90
53310;DHT22;39197;53.200;5.792;2023-06-22T07:12:54;21.70;99.90
53310;DHT22;39197;53.200;5.792;2023-06-22T07:15:20;21.70;99.90
53310;DHT22;39197;53.200;5.792;2023-06-22T07:17:45;21.80;99.90
53310;DHT22;39197;53.200;5.792;2023-06-22T07:20:11;22.00;99.90
53310;DHT22;39197;53.200;5.792;2023-06-22T07:22:42;22.60;99.90
53310;DHT22;39197;53.200;5.792;2023-06-22T07:25:09;23.30;99.90
53310;DHT22;39197;53.200;5.792;2023-06-22T07:27:39;23.80;99.90
53310;DHT22;39197;53.200;5.792;2023-06-22T07:30:09;24.30;99.90
53310;DHT22;39197;53.200;5.792;2023-06-22T07:32:35;24.90;99.90
53310;DHT22;39197;53.200;5.792;2023-06-22T07:35:01;25.10;99.90
53310;DHT22;39197;53.200;5.792;2023-06-22T07:37:28;24.90;99.90
53310;DHT22;39197;53.200;5.792;2023-06-22T07:39:54;25.00;99.90
53310;DHT22;39197;53.200;5.792;2023-06-22T07:42:27;25.40;99.90
53310;DHT22;39197;53.200;5.792;2023-06-22T07:44:54;25.40;99.90
53310;DHT22;39197;53.200;5.792;2023-06-22T07:47:20;25.70;99.90
53310;DHT22;39197;53.200;5.792;2023-06-22T07:49:50;25.80;99.90
53310;DHT22;39197;53.200;5.792;2023-06-22T07:52:16;26.20;99.90
53310;DHT22;39197;53.200;5.792;2023-06-22T07:54:41;26.50;99.90
53310;DHT22;39197;53.200;5.792;2023-06-22T07:57:07;26.50;99.90
53310;DHT22;39197;53.200;5.792;2023-06-22T07:59:32;26.80;99.90
53310;DHT22;39197;53.200;5.792;2023-06-22T08:01:58;27.00;99.90
53310;DHT22;39197;53.200;5.792;2023-06-22T08:04:23;26.80;99.90
53310;DHT22;39197;53.200;5.792;2023-06-22T08:06:49;27.00;99.90
53310;DHT22;39197;53.200;5.792;2023-06-22T08:09:15;27.30;99.90
53310;DHT22;39197;53.200;5.792;2023-06-22T08:11:40;27.00;99.90
53310;DHT22;39197;53.200;5.792;2023-06-22T08:14:06;27.30;99.90
53310;DHT22;39197;53.200;5.792;2023-06-22T08:16:31;27.60;99.90
53310;DHT22;39197;53.200;5.792;2023-06-22T08:18:57;27.70;99.90
53310;DHT22;39197;53.200;5.792;2023-06-22T08:21:23;27.80;99.90
53310;DHT22;39197;53.200;5.792;2023-06-22T08:23:48;28.00;99.90
53310;DHT22;39197;53.200;5.792;2023-06-22T08:26:14;27.80;99.90
53310;DHT22;39197;53.200;5.792;2023-06-22T08:28:40;27.80;99.90
53310;DHT22;39197;53.200;5.792;2023-06-22T08:31:06;27.90;99.90
53310;DHT22;39197;53.200;5.792;2023-06-22T08:33:31;27.80;99.90
53310;DHT22;39197;53.200;5.792;2023-06-22T08:35:58;27.70;99.90
53310;DHT22;39197;53.200;5.792;2023-06-22T08:38:25;27.90;99.90
53310;DHT22;39197;53.200;5.792;2023-06-22T08:40:51;27.70;99.90
53310;DHT22;39197;53.200;5.792;2023-06-22T08:43:16;27.50;99.90
53310;DHT22;39197;53.200;5.792;2023-06-22T08:45:42;27.80;99.90
53310;DHT22;39197;53.200;5.792;2023-06-22T08:48:08;27.70;99.90
53310;DHT22;39197;53.200;5.792;2023-06-22T08:50:33;27.20;99.90
53310;DHT22;39197;53.200;5.792;2023-06-22T08:52:59;27.70;99.90
53310;DHT22;39197;53.200;5.792;2023-06-22T08:55:25;27.70;99.90
53310;DHT22;39197;53.200;5.792;2023-06-22T08:57:50;27.90;99.90
53310;DHT22;39197;53.200;5.792;2023-06-22T09:00:16;28.10;99.90
53310;DHT22;39197;53.200;5.792;2023-06-22T09:02:46;28.00;99.90
53310;DHT22;39197;53.200;5.792;2023-06-22T09:05:12;28.30;99.90
53310;DHT22;39197;53.200;5.792;2023-06-22T09:07:38;28.60;99.90
53310;DHT22;39197;53.200;5.792;2023-06-22T09:10:05;28.10;99.90
53310;DHT22;39197;53.200;5.792;2023-06-22T09:12:31;28.20;99.90
53310;DHT22;39197;53.200;5.792;2023-06-22T09:14:58;28.50;99.90
53310;DHT22;39197;53.200;5.792;2023-06-22T09:17:25;28.80;99.90
53310;DHT22;39197;53.200;5.792;2023-06-22T09:19:51;28.60;99.90
53310;DHT22;39197;53.200;5.792;2023-06-22T09:22:17;29.10;99.90
53310;DHT22;39197;53.200;5.792;2023-06-22T09:24:42;29.30;99.90
53310;DHT22;39197;53.200;5.792;2023-06-22T09:27:08;29.00;99.90
53310;DHT22;39197;53.200;5.792;2023-06-22T09:29:34;29.50;99.90
53310;DHT22;39197;53.200;5.792;2023-06-22T09:32:00;29.50;99.90
53310;DHT22;39197;53.200;5.792;2023-06-22T09:34:26;29.50;99.90
53310;DHT22;39197;53.200;5.792;2023-06-22T09:36:51;29.00;99.90
53310;DHT22;39197;53.200;5.792;2023-06-22T09:39:20;29.40;99.90
53310;DHT22;39197;53.200;5.792;2023-06-22T09:41:45;29.10;99.90
53310;DHT22;39197;53.200;5.792;2023-06-22T09:44:11;29.60;99.90
53310;DHT22;39197;53.200;5.792;2023-06-22T09:46:37;29.40;99.90
53310;DHT22;39197;53.200;5.792;2023-06-22T09:49:02;29.10;99.90
53310;DHT22;39197;53.200;5.792;2023-06-22T09:51:28;28.30;99.90
53310;DHT22;39197;53.200;5.792;2023-06-22T09:53:54;28.80;99.90
53310;DHT22;39197;53.200;5.792;2023-06-22T09:56:20;29.10;99.90
53310;DHT22;39197;53.200;5.792;2023-06-22T09:58:46;29.20;99.90
53310;DHT22;39197;53.200;5.792;2023-06-22T10:01:13;29.00;99.90
53310;DHT22;39197;53.200;5.792;2023-06-22T10:03:41;29.20;99.90
53310;DHT22;39197;53.200;5.792;2023-06-22T10:06:07;29.60;99.90
53310;DHT22;39197;53.200;5.792;2023-06-22T10:08:34;29.90;99.90
53310;DHT22;39197;53.200;5.792;2023-06-22T10:11:00;30.10;99.90
53310;DHT22;39197;53.200;5.792;2023-06-22T10:13:25;30.20;99.00
53310;DHT22;39197;53.200;5.792;2023-06-22T10:15:51;30.20;99.00
53310;DHT22;39197;53.200;5.792;2023-06-22T10:18:21;30.00;99.30
53310;DHT22;39197;53.200;5.792;2023-06-22T10:20:50;30.20;99.00
53310;DHT22;39197;53.200;5.792;2023-06-22T10:23:19;30.00;99.10
53310;DHT22;39197;53.200;5.792;2023-06-22T10:25:45;29.90;98.50
53310;DHT22;39197;53.200;5.792;2023-06-22T10:28:11;30.30;98.30
53310;DHT22;39197;53.200;5.792;2023-06-22T10:30:41;29.60;98.80
53310;DHT22;39197;53.200;5.792;2023-06-22T10:33:07;30.00;99.20
53310;DHT22;39197;53.200;5.792;2023-06-22T10:35:33;30.30;98.60
53310;DHT22;39197;53.200;5.792;2023-06-22T10:37:59;30.00;98.80
53310;DHT22;39197;53.200;5.792;2023-06-22T10:40:25;30.50;98.50
53310;DHT22;39197;53.200;5.792;2023-06-22T10:42:51;30.60;97.50
53310;DHT22;39197;53.200;5.792;2023-06-22T10:45:16;30.70;97.50
53310;DHT22;39197;53.200;5.792;2023-06-22T10:47:42;30.60;97.40
53310;DHT22;39197;53.200;5.792;2023-06-22T10:50:08;30.40;97.40
53310;DHT22;39197;53.200;5.792;2023-06-22T10:52:34;30.40;97.60
53310;DHT22;39197;53.200;5.792;2023-06-22T10:54:59;30.50;97.00
53310;DHT22;39197;53.200;5.792;2023-06-22T10:57:25;30.20;97.20
53310;DHT22;39197;53.200;5.792;2023-06-22T10:59:51;30.40;97.00
53310;DHT22;39197;53.200;5.792;2023-06-22T11:02:17;30.70;96.60
53310;DHT22;39197;53.200;5.792;2023-06-22T11:04:42;30.90;95.90
53310;DHT22;39197;53.200;5.792;2023-06-22T11:07:09;30.70;94.90
53310;DHT22;39197;53.200;5.792;2023-06-22T11:09:35;30.90;95.30
53310;DHT22;39197;53.200;5.792;2023-06-22T11:12:00;30.90;96.10
53310;DHT22;39197;53.200;5.792;2023-06-22T11:14:26;31.00;96.20
53310;DHT22;39197;53.200;5.792;2023-06-22T11:16:52;30.50;96.90
53310;DHT22;39197;53.200;5.792;2023-06-22T11:19:18;30.40;97.10
53310;DHT22;39197;53.200;5.792;2023-06-22T11:21:44;30.70;97.10
53310;DHT22;39197;53.200;5.792;2023-06-22T11:24:10;31.10;96.90
53310;DHT22;39197;53.200;5.792;2023-06-22T11:26:36;31.10;96.40
53310;DHT22;39197;53.200;5.792;2023-06-22T11:29:02;30.40;97.00
53310;DHT22;39197;53.200;5.792;2023-06-22T11:31:31;30.10;97.80
53310;DHT22;39197;53.200;5.792;2023-06-22T11:33:57;30.40;97.80
53310;DHT22;39197;53.200;5.792;2023-06-22T11:36:23;30.10;98.30
53310;DHT22;39197;53.200;5.792;2023-06-22T11:38:48;30.20;98.00
53310;DHT22;39197;53.200;5.792;2023-06-22T11:41:14;30.60;97.80
53310;DHT22;39197;53.200;5.792;2023-06-22T11:43:40;30.50;97.60
53310;DHT22;39197;53.200;5.792;2023-06-22T11:46:05;30.50;97.80
53310;DHT22;39197;53.200;5.792;2023-06-22T11:48:31;30.70;97.40
53310;DHT22;39197;53.200;5.792;2023-06-22T11:50:57;31.30;97.10
53310;DHT22;39197;53.200;5.792;2023-06-22T11:53:25;30.70;96.90
53310;DHT22;39197;53.200;5.792;2023-06-22T11:55:51;30.90;96.90
53310;DHT22;39197;53.200;5.792;2023-06-22T11:58:19;30.20;97.10
53310;DHT22;39197;53.200;5.792;2023-06-22T12:00:45;30.10;97.20
53310;DHT22;39197;53.200;5.792;2023-06-22T12:03:11;30.80;97.00
53310;DHT22;39197;53.200;5.792;2023-06-22T12:05:38;31.30;96.40
53310;DHT22;39197;53.200;5.792;2023-06-22T12:08:04;31.50;95.70
53310;DHT22;39197;53.200;5.792;2023-06-22T12:10:30;30.90;96.30
53310;DHT22;39197;53.200;5.792;2023-06-22T12:12:55;31.10;96.00
53310;DHT22;39197;53.200;5.792;2023-06-22T12:15:23;31.40;95.80
53310;DHT22;39197;53.200;5.792;2023-06-22T12:17:49;31.30;95.60
53310;DHT22;39197;53.200;5.792;2023-06-22T12:20:15;31.30;95.30
53310;DHT22;39197;53.200;5.792;2023-06-22T12:22:41;31.10;95.00
53310;DHT22;39197;53.200;5.792;2023-06-22T12:25:09;30.90;95.00
53310;DHT22;39197;53.200;5.792;2023-06-22T12:27:36;30.50;94.70
53310;DHT22;39197;53.200;5.792;2023-06-22T12:30:02;30.80;94.50
53310;DHT22;39197;53.200;5.792;2023-06-22T12:32:28;30.70;94.40
53310;DHT22;39197;53.200;5.792;2023-06-22T12:34:54;29.70;94.60
53310;DHT22;39197;53.200;5.792;2023-06-22T12:37:20;30.00;94.70
53310;DHT22;39197;53.200;5.792;2023-06-22T12:39:46;29.30;94.80
53310;DHT22;39197;53.200;5.792;2023-06-22T12:42:12;29.30;94.90
53310;DHT22;39197;53.200;5.792;2023-06-22T12:44:40;28.60;95.40
53310;DHT22;39197;53.200;5.792;2023-06-22T12:47:07;28.30;95.60
53310;DHT22;39197;53.200;5.792;2023-06-22T12:49:34;28.40;95.70
53310;DHT22;39197;53.200;5.792;2023-06-22T12:52:00;28.70;95.40
53310;DHT22;39197;53.200;5.792;2023-06-22T12:54:26;28.20;95.90
53310;DHT22;39197;53.200;5.792;2023-06-22T12:56:52;28.50;95.70
53310;DHT22;39197;53.200;5.792;2023-06-22T12:59:17;28.50;95.90
53310;DHT22;39197;53.200;5.792;2023-06-22T13:01:43;28.70;95.70
53310;DHT22;39197;53.200;5.792;2023-06-22T13:04:13;28.50;95.80
53310;DHT22;39197;53.200;5.792;2023-06-22T13:06:46;28.20;95.50
53310;DHT22;39197;53.200;5.792;2023-06-22T13:09:13;27.90;95.80
53310;DHT22;39197;53.200;5.792;2023-06-22T13:11:39;28.00;96.00
53310;DHT22;39197;53.200;5.792;2023-06-22T13:14:05;27.60;95.80
53310;DHT22;39197;53.200;5.792;2023-06-22T13:16:31;27.70;95.80
53310;DHT22;39197;53.200;5.792;2023-06-22T13:18:56;27.60;95.80
53310;DHT22;39197;53.200;5.792;2023-06-22T13:21:22;27.60;95.80
53310;DHT22;39197;53.200;5.792;2023-06-22T13:23:47;27.20;95.70
53310;DHT22;39197;53.200;5.792;2023-06-22T13:26:13;27.30;95.60
53310;DHT22;39197;53.200;5.792;2023-06-22T13:28:39;26.80;95.70
53310;DHT22;39197;53.200;5.792;2023-06-22T13:31:04;26.60;96.00
53310;DHT22;39197;53.200;5.792;2023-06-22T13:33:30;26.70;96.00
53310;DHT22;39197;53.200;5.792;2023-06-22T13:35:56;26.20;96.10
53310;DHT22;39197;53.200;5.792;2023-06-22T13:38:22;26.20;96.10
53310;DHT22;39197;53.200;5.792;2023-06-22T13:40:48;26.30;96.10
53310;DHT22;39197;53.200;5.792;2023-06-22T13:43:14;26.10;96.00
53310;DHT22;39197;53.200;5.792;2023-06-22T13:45:41;26.20;95.90
53310;DHT22;39197;53.200;5.792;2023-06-22T13:48:07;26.10;96.20
53310;DHT22;39197;53.200;5.792;2023-06-22T13:50:33;26.00;95.90
53310;DHT22;39197;53.200;5.792;2023-06-22T13:52:58;25.80;96.40
53310;DHT22;39197;53.200;5.792;2023-06-22T13:55:24;25.90;96.60
53310;DHT22;39197;53.200;5.792;2023-06-22T13:57:50;25.90;96.60
53310;DHT22;39197;53.200;5.792;2023-06-22T14:00:17;25.90;96.90
53310;DHT22;39197;53.200;5.792;2023-06-22T14:02:42;25.50;97.60
53310;DHT22;39197;53.200;5.792;2023-06-22T14:05:08;25.50;97.90
53310;DHT22;39197;53.200;5.792;2023-06-22T14:07:34;25.50;98.10
53310;DHT22;39197;53.200;5.792;2023-06-22T14:10:00;25.50;98.10
53310;DHT22;39197;53.200;5.792;2023-06-22T14:12:26;25.50;98.00
53310;DHT22;39197;53.200;5.792;2023-06-22T14:14:52;25.20;98.10
53310;DHT22;39197;53.200;5.792;2023-06-22T14:17:17;25.00;98.20
53310;DHT22;39197;53.200;5.792;2023-06-22T14:19:49;24.90;98.30
53310;DHT22;39197;53.200;5.792;2023-06-22T14:22:15;24.70;98.50
53310;DHT22;39197;53.200;5.792;2023-06-22T14:24:41;24.80;98.80
53310;DHT22;39197;53.200;5.792;2023-06-22T14:27:06;24.90;99.00
53310;DHT22;39197;53.200;5.792;2023-06-22T14:29:34;24.90;98.90
53310;DHT22;39197;53.200;5.792;2023-06-22T14:31:59;24.60;99.10
53310;DHT22;39197;53.200;5.792;2023-06-22T14:34:25;24.50;99.10
53310;DHT22;39197;53.200;5.792;2023-06-22T14:36:51;24.40;99.70
53310;DHT22;39197;53.200;5.792;2023-06-22T14:39:16;24.50;99.80
53310;DHT22;39197;53.200;5.792;2023-06-22T14:41:42;24.50;99.60
53310;DHT22;39197;53.200;5.792;2023-06-22T14:44:07;24.30;99.80
53310;DHT22;39197;53.200;5.792;2023-06-22T14:46:33;24.10;99.90
53310;DHT22;39197;53.200;5.792;2023-06-22T14:48:59;24.20;99.90
53310;DHT22;39197;53.200;5.792;2023-06-22T14:51:24;24.20;99.90
53310;DHT22;39197;53.200;5.792;2023-06-22T14:53:50;24.00;99.90
53310;DHT22;39197;53.200;5.792;2023-06-22T14:56:16;24.00;99.90
53310;DHT22;39197;53.200;5.792;2023-06-22T14:58:42;23.90;99.90
53310;DHT22;39197;53.200;5.792;2023-06-22T15:01:11;24.00;99.90
53310;DHT22;39197;53.200;5.792;2023-06-22T15:03:37;23.90;99.90
53310;DHT22;39197;53.200;5.792;2023-06-22T15:06:04;23.90;99.90
53310;DHT22;39197;53.200;5.792;2023-06-22T15:08:30;23.90;99.90
53310;DHT22;39197;53.200;5.792;2023-06-22T15:10:58;23.80;99.90
53310;DHT22;39197;53.200;5.792;2023-06-22T15:13:24;23.80;99.90
53310;DHT22;39197;53.200;5.792;2023-06-22T15:15:50;23.80;99.90
53310;DHT22;39197;53.200;5.792;2023-06-22T15:18:16;24.00;99.90
53310;DHT22;39197;53.200;5.792;2023-06-22T15:20:42;24.10;99.90
53310;DHT22;39197;53.200;5.792;2023-06-22T15:23:12;23.90;99.90
53310;DHT22;39197;53.200;5.792;2023-06-22T15:25:38;23.80;99.90
53310;DHT22;39197;53.200;5.792;2023-06-22T15:28:04;24.10;99.90
53310;DHT22;39197;53.200;5.792;2023-06-22T15:30:29;24.10;99.90
53310;DHT22;39197;53.200;5.792;2023-06-22T15:32:56;23.80;99.90
53310;DHT22;39197;53.200;5.792;2023-06-22T15:35:22;23.90;99.90
53310;DHT22;39197;53.200;5.792;2023-06-22T15:37:48;23.70;99.90